createdAt,value
2023-05-18T00:01:17.948Z,10.00
2023-05-18T00:03:46.026Z,10.00
2023-05-18T00:06:14.054Z,9.90
2023-05-18T00:08:41.024Z,9.90
2023-05-18T00:11:07.913Z,9.80
2023-05-18T00:13:34.955Z,9.80
2023-05-18T00:16:02.132Z,9.80
2023-05-18T00:18:29.089Z,9.80
2023-05-18T00:20:59.003Z,9.80
2023-05-18T00:23:30.932Z,9.70
2023-05-18T00:25:59.386Z,9.70
2023-05-18T00:28:26.884Z,9.70
2023-05-18T00:30:54.601Z,9.70
2023-05-18T00:33:22.411Z,9.70
2023-05-18T00:35:49.521Z,9.70
2023-05-18T00:38:16.821Z,9.60
2023-05-18T00:40:44.914Z,9.60
2023-05-18T00:43:12.809Z,9.60
2023-05-18T00:45:39.760Z,9.60
2023-05-18T00:48:07.364Z,9.50
2023-05-18T00:50:35.156Z,9.50
2023-05-18T00:53:02.244Z,9.50
2023-05-18T00:55:30.653Z,9.50
2023-05-18T00:58:02.404Z,9.40
2023-05-18T01:00:29.671Z,9.30
2023-05-18T01:02:57.468Z,9.30
2023-05-18T01:05:24.692Z,9.20
2023-05-18T01:07:51.852Z,9.20
2023-05-18T01:10:20.814Z,9.10
2023-05-18T01:13:01.210Z,9.10
2023-05-18T01:15:36.635Z,9.00
2023-05-18T01:18:21.910Z,9.00
2023-05-18T01:21:13.622Z,8.90
2023-05-18T01:23:59.042Z,8.90
2023-05-18T01:26:31.739Z,8.80
2023-05-18T01:29:09.176Z,8.80
2023-05-18T01:31:36.620Z,8.70
2023-05-18T01:34:03.821Z,8.70
2023-05-18T01:36:31.735Z,8.70
2023-05-18T01:39:02.047Z,8.60
2023-05-18T01:41:31.795Z,8.60
2023-05-18T01:44:26.978Z,8.60
2023-05-18T01:47:14.078Z,8.50
2023-05-18T01:49:59.519Z,8.50
2023-05-18T01:52:35.267Z,8.50
2023-05-18T01:55:05.113Z,8.50
2023-05-18T01:57:33.892Z,8.50
2023-05-18T02:00:01.469Z,8.40
2023-05-18T02:02:29.730Z,8.40
2023-05-18T02:04:56.944Z,8.30
2023-05-18T02:07:24.131Z,8.30
2023-05-18T02:09:51.331Z,8.20
2023-05-18T02:12:18.394Z,8.20
2023-05-18T02:14:45.587Z,8.20
2023-05-18T02:17:12.435Z,8.20
2023-05-18T02:19:39.965Z,8.20
2023-05-18T02:22:08.267Z,8.10
2023-05-18T02:24:35.261Z,8.10
2023-05-18T02:27:02.387Z,8.00
2023-05-18T02:29:29.518Z,8.00
2023-05-18T02:31:56.492Z,8.00
2023-05-18T02:34:24.887Z,7.90
2023-05-18T02:36:51.916Z,7.90
2023-05-18T02:39:19.057Z,7.90
2023-05-18T02:41:46.387Z,7.80
2023-05-18T02:44:13.403Z,7.80
2023-05-18T02:46:40.553Z,7.80
2023-05-18T02:49:07.731Z,7.70
2023-05-18T02:51:34.968Z,7.70
2023-05-18T02:54:02.050Z,7.70
2023-05-18T02:56:30.107Z,7.60
2023-05-18T02:58:58.433Z,7.60
2023-05-18T03:01:27.265Z,7.60
2023-05-18T03:03:57.737Z,7.60
2023-05-18T03:06:26.844Z,7.60
2023-05-18T03:08:57.234Z,7.60
2023-05-18T03:11:24.965Z,7.60
2023-05-18T03:13:52.421Z,7.60
2023-05-18T03:16:19.291Z,7.60
2023-05-18T03:18:46.968Z,7.60
2023-05-18T03:21:13.975Z,7.60
2023-05-18T03:23:41.190Z,7.80
2023-05-18T03:26:11.707Z,7.70
2023-05-18T03:28:39.532Z,7.70
2023-05-18T03:31:07.121Z,7.70
2023-05-18T03:33:34.476Z,7.70
2023-05-18T03:36:04.813Z,7.80
2023-05-18T03:38:32.022Z,7.80
2023-05-18T03:40:59.128Z,7.80
2023-05-18T03:43:26.304Z,7.90
2023-05-18T03:45:53.741Z,7.90
2023-05-18T03:48:21.777Z,8.00
2023-05-18T03:50:49.012Z,8.00
2023-05-18T03:53:19.404Z,8.10
2023-05-18T03:55:47.219Z,8.10
2023-05-18T03:58:14.340Z,8.10
2023-05-18T04:00:42.829Z,8.10
2023-05-18T04:03:12.809Z,8.10
2023-05-18T04:05:43.551Z,8.20
2023-05-18T04:08:14.405Z,8.20
2023-05-18T04:10:44.980Z,8.30
2023-05-18T04:13:12.432Z,8.30
2023-05-18T04:15:39.404Z,8.40
2023-05-18T04:18:06.649Z,8.40
2023-05-18T04:20:33.918Z,8.40
2023-05-18T04:23:01.097Z,8.50
2023-05-18T04:25:28.669Z,8.60
2023-05-18T04:27:56.844Z,8.60
2023-05-18T04:30:24.056Z,8.60
2023-05-18T04:32:51.363Z,8.60
2023-05-18T04:35:18.751Z,8.60
2023-05-18T04:37:46.272Z,8.60
2023-05-18T04:40:14.186Z,8.60
2023-05-18T04:42:48.871Z,8.60
2023-05-18T04:45:17.255Z,8.60
2023-05-18T04:47:46.717Z,8.60
2023-05-18T04:50:15.799Z,8.70
2023-05-18T04:52:50.776Z,8.70
2023-05-18T04:55:28.969Z,8.70
2023-05-18T04:57:57.250Z,8.80
2023-05-18T05:00:26.334Z,8.80
2023-05-18T05:02:54.213Z,8.80
2023-05-18T05:05:22.481Z,8.90
2023-05-18T05:07:56.074Z,9.00
2023-05-18T05:10:23.537Z,9.00
2023-05-18T05:12:51.115Z,9.10
2023-05-18T05:15:19.458Z,9.10
2023-05-18T05:17:50.254Z,9.20
2023-05-18T05:20:17.774Z,9.30
2023-05-18T05:22:45.188Z,9.40
2023-05-18T05:25:12.427Z,9.50
2023-05-18T05:27:39.508Z,9.50
2023-05-18T05:30:07.411Z,9.60
2023-05-18T05:32:36.232Z,9.60
2023-05-18T05:35:04.062Z,9.60
2023-05-18T05:37:31.299Z,9.70
2023-05-18T05:39:59.425Z,9.70
2023-05-18T05:42:26.872Z,9.70
2023-05-18T05:44:53.856Z,9.80
2023-05-18T05:47:20.756Z,9.90
2023-05-18T05:49:47.614Z,10.00
2023-05-18T05:52:14.649Z,10.00
2023-05-18T05:54:41.823Z,10.00
2023-05-18T05:57:08.682Z,10.00
2023-05-18T05:59:35.755Z,10.00
2023-05-18T06:02:02.829Z,10.00
2023-05-18T06:04:29.792Z,10.10
2023-05-18T06:06:57.914Z,10.20
2023-05-18T06:09:24.834Z,10.30
2023-05-18T06:11:52.918Z,10.40
2023-05-18T06:14:19.814Z,10.50
2023-05-18T06:16:47.137Z,10.60
2023-05-18T06:19:14.061Z,10.70
2023-05-18T06:21:41.059Z,10.70
2023-05-18T06:24:08.088Z,10.80
2023-05-18T06:26:35.089Z,10.80
2023-05-18T06:29:03.032Z,10.80
2023-05-18T06:31:30.667Z,10.70
2023-05-18T06:33:57.724Z,10.70
2023-05-18T06:36:24.635Z,10.70
2023-05-18T06:38:51.754Z,10.60
2023-05-18T06:41:18.636Z,10.60
2023-05-18T06:43:45.641Z,10.70
2023-05-18T06:46:20.769Z,10.70
2023-05-18T06:48:47.644Z,10.80
2023-05-18T06:51:16.313Z,10.90
2023-05-18T06:53:43.506Z,11.00
2023-05-18T06:56:13.065Z,11.10
2023-05-18T06:58:41.547Z,11.10
2023-05-18T07:01:08.952Z,11.10
2023-05-18T07:03:35.859Z,11.10
2023-05-18T07:06:04.657Z,11.20
2023-05-18T07:08:32.201Z,11.30
2023-05-18T07:11:02.368Z,11.30
2023-05-18T07:13:29.421Z,11.30
2023-05-18T07:15:56.732Z,11.40
2023-05-18T07:18:23.604Z,11.40
2023-05-18T07:20:50.588Z,11.50
2023-05-18T07:23:17.492Z,11.50
2023-05-18T07:25:44.517Z,11.50
2023-05-18T07:28:11.390Z,11.50
2023-05-18T07:30:38.264Z,11.60
2023-05-18T07:33:05.151Z,11.60
2023-05-18T07:35:32.790Z,11.60
2023-05-18T07:37:59.849Z,11.60
2023-05-18T07:40:26.752Z,11.60
2023-05-18T07:42:53.668Z,11.60
2023-05-18T07:45:20.602Z,11.70
2023-05-18T07:47:47.488Z,11.80
2023-05-18T07:50:14.348Z,11.90
2023-05-18T07:52:41.161Z,12.10
2023-05-18T07:55:09.201Z,12.20
2023-05-18T07:57:36.333Z,12.40
2023-05-18T08:00:06.579Z,12.60
2023-05-18T08:02:34.446Z,12.70
2023-05-18T08:05:01.443Z,12.80
2023-05-18T08:07:30.006Z,13.00
2023-05-18T08:09:57.193Z,13.10
2023-05-18T08:12:24.717Z,13.20
2023-05-18T08:14:51.583Z,13.30
2023-05-18T08:17:19.722Z,13.40
2023-05-18T08:19:47.882Z,13.50
2023-05-18T08:22:15.584Z,13.60
2023-05-18T08:24:42.500Z,13.50
2023-05-18T08:27:11.315Z,13.50
2023-05-18T08:29:38.393Z,13.30
2023-05-18T08:32:08.842Z,13.20
2023-05-18T08:34:36.105Z,13.30
2023-05-18T08:37:03.143Z,13.20
2023-05-18T08:39:32.398Z,13.20
2023-05-18T08:42:19.662Z,13.20
2023-05-18T08:45:01.426Z,13.20
2023-05-18T08:47:30.063Z,13.20
2023-05-18T08:49:57.931Z,13.20
2023-05-18T08:52:28.150Z,13.20
2023-05-18T08:54:57.270Z,13.40
2023-05-18T08:57:24.652Z,13.50
2023-05-18T08:59:53.071Z,13.70
2023-05-18T09:02:19.895Z,14.00
2023-05-18T09:04:48.320Z,14.10
2023-05-18T09:07:16.182Z,14.20
2023-05-18T09:09:45.357Z,14.30
2023-05-18T09:12:13.501Z,14.50
2023-05-18T09:14:41.884Z,14.50
2023-05-18T09:17:09.113Z,14.50
2023-05-18T09:19:36.059Z,14.50
2023-05-18T09:22:03.198Z,14.60
2023-05-18T09:24:30.173Z,14.70
2023-05-18T09:26:57.168Z,14.70
2023-05-18T09:29:27.035Z,14.70
2023-05-18T09:31:54.639Z,14.60
2023-05-18T09:34:21.729Z,14.20
2023-05-18T09:36:52.926Z,14.00
2023-05-18T09:39:19.992Z,13.90
2023-05-18T09:41:46.831Z,14.00
2023-05-18T09:44:13.767Z,14.10
2023-05-18T09:46:41.230Z,14.30
2023-05-18T09:49:08.537Z,14.50
2023-05-18T09:51:39.743Z,14.70
2023-05-18T09:54:10.427Z,14.70
2023-05-18T09:56:38.798Z,14.70
2023-05-18T09:59:16.127Z,14.80
2023-05-18T10:02:05.828Z,14.90
2023-05-18T10:04:41.339Z,15.10
2023-05-18T10:07:14.268Z,15.30
2023-05-18T10:09:42.493Z,15.40
2023-05-18T10:12:17.111Z,15.40
2023-05-18T10:14:45.496Z,15.60
2023-05-18T10:17:16.700Z,15.70
2023-05-18T10:19:46.140Z,15.60
2023-05-18T10:22:16.768Z,15.60
2023-05-18T10:24:50.130Z,15.60
2023-05-18T10:27:20.561Z,15.60
2023-05-18T10:29:47.842Z,15.70
2023-05-18T10:32:16.802Z,15.70
2023-05-18T10:34:44.982Z,15.50
2023-05-18T10:37:13.347Z,15.30
2023-05-18T10:39:42.421Z,15.30
2023-05-18T10:42:10.827Z,15.30
2023-05-18T10:44:38.307Z,15.50
2023-05-18T10:47:06.473Z,15.80
2023-05-18T10:49:36.224Z,15.90
2023-05-18T10:52:03.653Z,16.00
2023-05-18T10:54:30.599Z,15.80
2023-05-18T10:56:57.766Z,15.50
2023-05-18T10:59:24.819Z,15.40
2023-05-18T11:01:53.843Z,15.30
2023-05-18T11:04:30.039Z,15.40
2023-05-18T11:07:01.490Z,15.40
2023-05-18T11:09:32.515Z,15.50
2023-05-18T11:12:00.427Z,15.60
2023-05-18T11:14:31.995Z,15.70
2023-05-18T11:17:22.826Z,15.90
2023-05-18T11:20:25.119Z,16.20
2023-05-18T11:22:59.275Z,16.40
2023-05-18T11:25:29.128Z,16.60
2023-05-18T11:28:02.236Z,16.60
2023-05-18T11:30:37.104Z,16.50
2023-05-18T11:33:17.681Z,16.60
2023-05-18T11:36:09.451Z,16.60
2023-05-18T11:38:55.299Z,16.70
2023-05-18T11:41:32.380Z,16.70
2023-05-18T11:44:11.408Z,16.60
2023-05-18T11:46:53.407Z,16.50
2023-05-18T11:49:25.882Z,16.30
2023-05-18T11:52:03.383Z,16.20
2023-05-18T11:54:42.566Z,16.20
2023-05-18T11:57:11.142Z,16.30
2023-05-18T11:59:41.014Z,16.30
2023-05-18T12:02:11.763Z,16.20
2023-05-18T12:05:00.276Z,15.90
2023-05-18T12:07:28.898Z,15.70
2023-05-18T12:10:04.872Z,15.50
2023-05-18T12:12:33.164Z,15.60
2023-05-18T12:15:02.499Z,15.80
2023-05-18T12:17:40.663Z,15.80
2023-05-18T12:20:28.469Z,15.80
2023-05-18T12:22:56.376Z,16.00
2023-05-18T12:25:28.046Z,16.10
2023-05-18T12:27:55.454Z,16.30
2023-05-18T12:30:24.986Z,16.50
2023-05-18T12:32:57.085Z,16.80
2023-05-18T12:35:29.096Z,17.00
2023-05-18T12:38:00.889Z,17.00
2023-05-18T12:40:34.231Z,17.10
2023-05-18T12:43:03.134Z,16.90
2023-05-18T12:45:32.621Z,16.70
2023-05-18T12:48:12.112Z,16.60
2023-05-18T12:50:51.745Z,16.60
2023-05-18T12:53:18.794Z,16.70
2023-05-18T12:55:45.964Z,16.80
2023-05-18T12:58:18.473Z,16.90
2023-05-18T13:00:47.828Z,16.90
2023-05-18T13:03:21.505Z,16.80
2023-05-18T13:06:06.582Z,16.80
2023-05-18T13:08:35.061Z,16.80
2023-05-18T13:11:13.758Z,16.60
2023-05-18T13:14:03.642Z,16.60
2023-05-18T13:16:31.546Z,16.40
2023-05-18T13:19:03.723Z,16.50
2023-05-18T13:21:30.901Z,16.40
2023-05-18T13:23:58.138Z,16.40
2023-05-18T13:26:25.654Z,16.50
2023-05-18T13:28:55.137Z,16.60
2023-05-18T13:31:22.909Z,16.70
2023-05-18T13:33:50.656Z,16.70
2023-05-18T13:36:19.437Z,16.80
2023-05-18T13:38:46.540Z,16.80
2023-05-18T13:41:16.985Z,16.70
2023-05-18T13:43:44.006Z,16.70
2023-05-18T13:46:11.181Z,16.70
2023-05-18T13:48:38.228Z,16.60
2023-05-18T13:51:05.515Z,16.50
2023-05-18T13:53:33.838Z,16.50
2023-05-18T13:56:00.910Z,16.50
2023-05-18T13:58:28.029Z,16.50
2023-05-18T14:00:55.512Z,16.60
2023-05-18T14:03:24.397Z,16.70
2023-05-18T14:05:51.703Z,16.60
2023-05-18T14:08:18.820Z,16.40
2023-05-18T14:10:45.941Z,16.40
2023-05-18T14:13:12.973Z,16.20
2023-05-18T14:15:39.864Z,16.00
2023-05-18T14:18:06.785Z,15.90
2023-05-18T14:20:34.064Z,15.70
2023-05-18T14:23:04.437Z,15.60
2023-05-18T14:25:32.094Z,15.40
2023-05-18T14:27:59.137Z,15.30
2023-05-18T14:30:26.503Z,15.30
2023-05-18T14:32:53.509Z,15.30
2023-05-18T14:35:23.407Z,15.30
2023-05-18T14:37:50.609Z,15.30
2023-05-18T14:40:17.797Z,15.30
2023-05-18T14:42:46.145Z,15.30
2023-05-18T14:45:13.346Z,15.30
2023-05-18T14:47:41.289Z,15.20
2023-05-18T14:50:08.687Z,15.10
2023-05-18T14:52:35.910Z,15.00
2023-05-18T14:55:03.155Z,15.00
2023-05-18T14:57:30.196Z,14.90
2023-05-18T14:59:58.649Z,14.80
2023-05-18T15:02:25.886Z,14.70
2023-05-18T15:04:52.972Z,14.70
2023-05-18T15:07:20.131Z,14.70
2023-05-18T15:09:47.210Z,14.70
2023-05-18T15:12:14.378Z,14.70
2023-05-18T15:14:41.500Z,14.70
2023-05-18T15:17:08.681Z,14.70
2023-05-18T15:19:36.252Z,14.60
2023-05-18T15:22:03.329Z,14.60
2023-05-18T15:24:31.719Z,14.50
2023-05-18T15:26:58.961Z,14.50
2023-05-18T15:29:26.168Z,14.50
2023-05-18T15:31:55.304Z,14.50
2023-05-18T15:34:22.377Z,14.60
2023-05-18T15:36:50.132Z,14.60
2023-05-18T15:39:21.291Z,14.60
2023-05-18T15:41:49.018Z,14.60
2023-05-18T15:44:16.196Z,14.60
2023-05-18T15:46:43.710Z,14.60
2023-05-18T15:49:11.712Z,14.60
2023-05-18T15:51:39.029Z,14.60
2023-05-18T15:54:05.956Z,14.60
2023-05-18T15:56:33.184Z,14.60
2023-05-18T15:59:00.255Z,14.60
2023-05-18T16:01:27.458Z,14.60
2023-05-18T16:03:54.726Z,14.60
2023-05-18T16:06:21.716Z,14.60
2023-05-18T16:08:48.978Z,14.60
2023-05-18T16:11:17.124Z,14.50
2023-05-18T16:13:44.059Z,14.60
2023-05-18T16:16:14.268Z,14.60
2023-05-18T16:18:41.458Z,14.60
2023-05-18T16:21:09.690Z,14.60
2023-05-18T16:23:36.698Z,14.60
2023-05-18T16:26:05.482Z,14.60
2023-05-18T16:28:32.825Z,14.60
2023-05-18T16:31:00.413Z,14.60
2023-05-18T16:33:29.561Z,14.60
2023-05-18T16:35:58.392Z,14.60
2023-05-18T16:38:25.725Z,14.60
2023-05-18T16:40:53.038Z,14.60
2023-05-18T16:43:20.017Z,14.60
2023-05-18T16:45:47.319Z,14.60
2023-05-18T16:48:14.414Z,14.60
2023-05-18T16:50:41.553Z,14.60
2023-05-18T16:53:08.694Z,14.60
2023-05-18T16:55:35.899Z,14.60
2023-05-18T16:58:03.173Z,14.50
2023-05-18T17:00:30.456Z,14.50
2023-05-18T17:02:58.236Z,14.40
2023-05-18T17:05:26.608Z,14.40
2023-05-18T17:07:53.733Z,14.30
2023-05-18T17:10:20.902Z,14.30
2023-05-18T17:12:48.109Z,14.30
2023-05-18T17:15:16.445Z,14.20
2023-05-18T17:17:44.068Z,14.20
2023-05-18T17:20:11.723Z,14.20
2023-05-18T17:22:38.734Z,14.20
2023-05-18T17:25:05.973Z,14.10
2023-05-18T17:27:34.313Z,14.10
2023-05-18T17:30:01.299Z,14.10
2023-05-18T17:32:28.500Z,14.10
2023-05-18T17:34:55.563Z,14.00
2023-05-18T17:37:22.682Z,14.00
2023-05-18T17:39:49.864Z,14.00
2023-05-18T17:42:16.976Z,13.90
2023-05-18T17:44:45.573Z,13.90
2023-05-18T17:47:14.549Z,13.80
2023-05-18T17:49:41.831Z,13.80
2023-05-18T17:52:09.029Z,13.80
2023-05-18T17:54:36.119Z,13.80
2023-05-18T17:57:03.303Z,13.80
2023-05-18T17:59:30.568Z,13.80
2023-05-18T18:01:57.551Z,13.80
2023-05-18T18:04:24.506Z,13.70
2023-05-18T18:06:54.330Z,13.70
2023-05-18T18:09:22.338Z,13.70
2023-05-18T18:11:49.494Z,13.70
2023-05-18T18:14:17.410Z,13.60
2023-05-18T18:16:44.823Z,13.60
2023-05-18T18:19:14.116Z,13.60
2023-05-18T18:21:41.169Z,13.60
2023-05-18T18:24:08.280Z,13.50
2023-05-18T18:26:40.391Z,13.50
2023-05-18T18:29:07.628Z,13.50
2023-05-18T18:31:35.007Z,13.50
2023-05-18T18:34:02.024Z,13.40
2023-05-18T18:36:28.972Z,13.40
2023-05-18T18:38:56.661Z,13.40
2023-05-18T18:41:24.939Z,13.40
2023-05-18T18:43:54.155Z,13.40
2023-05-18T18:46:21.458Z,13.40
2023-05-18T18:48:48.385Z,13.30
2023-05-18T18:51:15.320Z,13.30
2023-05-18T18:53:42.378Z,13.30
2023-05-18T18:56:09.561Z,13.30
2023-05-18T18:58:36.930Z,13.30
2023-05-18T19:01:04.368Z,13.30
2023-05-18T19:03:33.699Z,13.20
2023-05-18T19:06:00.699Z,13.20
2023-05-18T19:08:27.735Z,13.20
2023-05-18T19:10:55.174Z,13.20
2023-05-18T19:13:22.374Z,13.10
2023-05-18T19:15:50.351Z,13.10
2023-05-18T19:18:17.812Z,13.10
2023-05-18T19:20:44.999Z,13.10
2023-05-18T19:23:12.131Z,13.10
2023-05-18T19:25:39.324Z,13.20
2023-05-18T19:28:06.825Z,13.20
2023-05-18T19:30:33.916Z,13.20
2023-05-18T19:33:00.820Z,13.10
2023-05-18T19:35:27.931Z,13.20
2023-05-18T19:37:55.150Z,13.10
2023-05-18T19:40:22.794Z,13.10
2023-05-18T19:42:50.352Z,13.10
2023-05-18T19:45:17.484Z,13.10
2023-05-18T19:47:44.588Z,13.10
2023-05-18T19:50:12.480Z,13.10
2023-05-18T19:52:39.455Z,13.10
2023-05-18T19:55:07.123Z,13.10
2023-05-18T19:57:34.080Z,13.10
2023-05-18T20:00:01.611Z,13.00
2023-05-18T20:02:28.708Z,13.00
2023-05-18T20:04:55.912Z,13.00
2023-05-18T20:07:23.991Z,13.00
2023-05-18T20:09:54.800Z,12.90
2023-05-18T20:12:22.128Z,12.90
2023-05-18T20:14:49.020Z,12.90
2023-05-18T20:17:16.945Z,12.80
2023-05-18T20:19:50.623Z,12.80
2023-05-18T20:22:19.025Z,12.70
2023-05-18T20:24:46.292Z,12.70
2023-05-18T20:27:16.761Z,12.70
2023-05-18T20:29:43.994Z,12.60
2023-05-18T20:32:11.230Z,12.70
2023-05-18T20:34:38.203Z,12.60
2023-05-18T20:37:05.908Z,12.60
2023-05-18T20:39:33.247Z,12.60
2023-05-18T20:42:00.424Z,12.60
2023-05-18T20:44:28.771Z,12.60
2023-05-18T20:46:55.921Z,12.60
2023-05-18T20:49:24.975Z,12.60
2023-05-18T20:51:52.300Z,12.50
2023-05-18T20:54:21.261Z,12.50
2023-05-18T20:56:48.592Z,12.60
2023-05-18T20:59:16.351Z,12.50
2023-05-18T21:01:44.035Z,12.60
2023-05-18T21:04:12.974Z,12.60
2023-05-18T21:06:41.185Z,12.60
2023-05-18T21:09:08.452Z,12.60
2023-05-18T21:11:36.065Z,12.50
2023-05-18T21:14:03.167Z,12.50
2023-05-18T21:16:30.256Z,12.50
2023-05-18T21:18:57.522Z,12.50
2023-05-18T21:21:24.805Z,12.50
2023-05-18T21:23:52.051Z,12.50
2023-05-18T21:26:19.506Z,12.40
2023-05-18T21:28:46.649Z,12.40
2023-05-18T21:31:13.807Z,12.40
2023-05-18T21:33:41.991Z,12.40
2023-05-18T21:36:10.118Z,12.40
2023-05-18T21:38:37.373Z,12.30
2023-05-18T21:41:05.501Z,12.30
2023-05-18T21:43:33.587Z,12.30
2023-05-18T21:46:01.184Z,12.20
2023-05-18T21:48:28.441Z,12.30
2023-05-18T21:50:55.611Z,12.30
2023-05-18T21:53:26.345Z,12.30
2023-05-18T21:55:53.633Z,12.30
2023-05-18T21:58:21.388Z,12.30
2023-05-18T22:00:48.415Z,12.40
2023-05-18T22:03:15.615Z,12.40
2023-05-18T22:05:45.154Z,12.40
2023-05-18T22:08:12.352Z,12.40
2023-05-18T22:10:39.441Z,12.40
2023-05-18T22:13:06.702Z,12.40
2023-05-18T22:15:36.060Z,12.40
2023-05-18T22:18:04.241Z,12.40
2023-05-18T22:20:32.089Z,12.40
2023-05-18T22:22:59.964Z,12.40
2023-05-18T22:25:27.317Z,12.40
2023-05-18T22:27:54.496Z,12.40
2023-05-18T22:30:23.855Z,12.40
2023-05-18T22:32:51.987Z,12.30
2023-05-18T22:35:19.161Z,12.30
2023-05-18T22:37:46.575Z,12.40
2023-05-18T22:40:13.881Z,12.40
2023-05-18T22:42:41.028Z,12.40
2023-05-18T22:45:09.281Z,12.40
2023-05-18T22:47:38.268Z,12.40
2023-05-18T22:50:07.158Z,12.40
2023-05-18T22:52:35.008Z,12.40
2023-05-18T22:55:02.271Z,12.40
2023-05-18T22:57:29.465Z,12.40
2023-05-18T22:59:56.594Z,12.30
2023-05-18T23:02:23.689Z,12.30
2023-05-18T23:04:50.858Z,12.30
2023-05-18T23:07:17.961Z,12.30
2023-05-18T23:09:45.473Z,12.30
2023-05-18T23:12:12.585Z,12.30
2023-05-18T23:14:39.771Z,12.30
2023-05-18T23:17:07.164Z,12.20
2023-05-18T23:19:35.118Z,12.20
2023-05-18T23:22:02.373Z,12.20
2023-05-18T23:24:29.553Z,12.20
2023-05-18T23:27:00.392Z,12.20
2023-05-18T23:29:27.506Z,12.20
2023-05-18T23:31:54.696Z,12.10
2023-05-18T23:34:21.990Z,12.10
2023-05-18T23:36:53.365Z,12.10
2023-05-18T23:39:22.135Z,12.10
2023-05-18T23:41:52.086Z,12.00
2023-05-18T23:44:20.511Z,12.00
2023-05-18T23:46:48.830Z,12.00
2023-05-18T23:49:15.993Z,12.00
2023-05-18T23:51:43.921Z,12.00
2023-05-18T23:54:11.295Z,11.90
2023-05-18T23:56:38.769Z,12.00
2023-05-18T23:59:06.860Z,11.90
